createdAt,value
2023-05-05T00:00:00.651Z,3.90
2023-05-05T00:02:32.521Z,4.47
2023-05-05T00:05:04.229Z,4.17
2023-05-05T00:07:37.321Z,4.27
2023-05-05T00:10:10.543Z,4.90
2023-05-05T00:12:42.191Z,4.60
2023-05-05T00:15:14.394Z,4.57
2023-05-05T00:17:46.345Z,4.70
2023-05-05T00:20:18.207Z,4.27
2023-05-05T00:22:51.366Z,4.23
2023-05-05T00:25:23.279Z,3.87
2023-05-05T00:27:55.282Z,4.27
2023-05-05T00:30:27.189Z,4.10
2023-05-05T00:32:59.268Z,4.00
2023-05-05T00:35:31.065Z,4.60
2023-05-05T00:38:04.136Z,4.43
2023-05-05T00:40:35.999Z,4.27
2023-05-05T00:43:08.195Z,5.00
2023-05-05T00:45:42.763Z,4.40
2023-05-05T00:48:14.952Z,4.63
2023-05-05T00:50:48.202Z,4.60
2023-05-05T00:53:21.283Z,4.27
2023-05-05T00:55:53.556Z,4.73
2023-05-05T00:58:25.610Z,4.70
2023-05-05T01:00:57.402Z,4.77
2023-05-05T01:03:29.334Z,5.20
2023-05-05T01:06:11.113Z,4.63
2023-05-05T01:08:56.564Z,4.80
2023-05-05T01:11:40.725Z,4.33
2023-05-05T01:14:23.993Z,4.67
2023-05-05T01:17:07.976Z,4.80
2023-05-05T01:20:15.579Z,4.83
2023-05-05T01:22:54.908Z,5.00
2023-05-05T01:25:50.388Z,4.50
2023-05-05T01:28:38.223Z,4.57
2023-05-05T01:31:28.037Z,5.20
2023-05-05T01:34:08.426Z,4.93
2023-05-05T01:36:45.532Z,4.67
2023-05-05T01:39:21.862Z,5.30
2023-05-05T01:42:03.600Z,4.70
2023-05-05T01:44:37.343Z,4.60
2023-05-05T01:47:10.978Z,4.50
2023-05-05T01:49:47.205Z,5.10
2023-05-05T01:52:21.551Z,4.67
2023-05-05T01:54:58.464Z,4.57
2023-05-05T01:57:34.121Z,5.47
2023-05-05T02:00:09.813Z,4.60
2023-05-05T02:02:46.326Z,4.90
2023-05-05T02:05:23.539Z,4.83
2023-05-05T02:07:59.963Z,4.60
2023-05-05T02:10:33.451Z,5.03
2023-05-05T02:13:06.768Z,4.80
2023-05-05T02:15:41.412Z,4.60
2023-05-05T02:18:15.157Z,5.00
2023-05-05T02:20:49.605Z,5.10
2023-05-05T02:23:22.080Z,4.50
2023-05-05T02:26:00.801Z,4.90
2023-05-05T02:28:48.136Z,5.00
2023-05-05T02:31:24.567Z,5.20
2023-05-05T02:34:01.453Z,5.27
2023-05-05T02:36:38.542Z,4.63
2023-05-05T02:39:20.766Z,4.97
2023-05-05T02:41:56.192Z,4.83
2023-05-05T02:44:30.060Z,4.80
2023-05-05T02:47:03.810Z,4.87
2023-05-05T02:49:35.945Z,4.93
2023-05-05T02:52:09.163Z,5.20
2023-05-05T02:54:41.215Z,4.70
2023-05-05T02:57:20.897Z,5.23
2023-05-05T03:00:01.968Z,4.87
2023-05-05T03:02:44.436Z,5.10
2023-05-05T03:05:23.258Z,5.30
2023-05-05T03:08:03.163Z,4.90
2023-05-05T03:11:00.021Z,4.87
2023-05-05T03:13:35.484Z,5.20
2023-05-05T03:16:10.026Z,4.80
2023-05-05T03:18:45.362Z,5.13
2023-05-05T03:21:17.353Z,5.20
2023-05-05T03:23:51.140Z,5.07
2023-05-05T03:26:22.822Z,5.00
2023-05-05T03:28:54.728Z,4.97
2023-05-05T03:31:28.283Z,5.13
2023-05-05T03:33:59.941Z,5.77
2023-05-05T03:36:32.946Z,5.67
2023-05-05T03:39:06.232Z,5.43
2023-05-05T03:41:38.077Z,4.80
2023-05-05T03:44:09.869Z,5.00
2023-05-05T03:46:41.684Z,5.53
2023-05-05T03:49:13.591Z,5.67
2023-05-05T03:51:45.558Z,5.03
2023-05-05T03:54:19.241Z,5.03
2023-05-05T03:56:51.074Z,5.37
2023-05-05T03:59:23.020Z,5.13
2023-05-05T04:01:54.859Z,5.13
2023-05-05T04:04:26.860Z,5.23
2023-05-05T04:06:58.560Z,5.43
2023-05-05T04:09:31.788Z,5.20
2023-05-05T04:12:03.578Z,5.07
2023-05-05T04:14:35.813Z,5.67
2023-05-05T04:17:07.524Z,4.97
2023-05-05T04:19:39.337Z,5.30
2023-05-05T04:22:11.372Z,4.57
2023-05-05T04:24:44.298Z,5.53
2023-05-05T04:27:16.379Z,5.63
2023-05-05T04:29:48.150Z,5.23
2023-05-05T04:32:20.014Z,5.53
2023-05-05T04:34:51.816Z,5.60
2023-05-05T04:37:23.580Z,5.30
2023-05-05T04:39:56.982Z,6.07
2023-05-05T04:42:28.847Z,5.60
2023-05-05T04:45:00.628Z,5.33
2023-05-05T04:47:32.555Z,5.20
2023-05-05T04:50:04.415Z,5.63
2023-05-05T04:52:36.247Z,5.53
2023-05-05T04:55:11.608Z,4.80
2023-05-05T04:57:43.373Z,5.63
2023-05-05T05:00:17.664Z,5.70
2023-05-05T05:02:49.621Z,5.17
2023-05-05T05:05:21.546Z,5.50
2023-05-05T05:07:53.253Z,5.30
2023-05-05T05:10:26.424Z,6.40
2023-05-05T05:12:58.371Z,5.47
2023-05-05T05:15:31.122Z,5.20
2023-05-05T05:18:03.013Z,5.70
2023-05-05T05:20:35.389Z,5.73
2023-05-05T05:23:07.189Z,5.30
2023-05-05T05:25:40.370Z,6.40
2023-05-05T05:28:12.284Z,5.77
2023-05-05T05:30:44.067Z,5.60
2023-05-05T05:33:15.914Z,5.93
2023-05-05T05:35:47.820Z,6.07
2023-05-05T05:38:19.712Z,6.30
2023-05-05T05:40:54.629Z,5.67
2023-05-05T05:43:26.183Z,6.00
2023-05-05T05:45:58.064Z,5.67
2023-05-05T05:48:29.965Z,5.23
2023-05-05T05:51:02.440Z,5.90
2023-05-05T05:53:35.929Z,5.87
2023-05-05T05:56:11.051Z,6.50
2023-05-05T05:58:42.914Z,5.47
2023-05-05T06:01:14.807Z,5.93
2023-05-05T06:03:46.735Z,6.23
2023-05-05T06:06:18.407Z,5.47
2023-05-05T06:08:51.813Z,5.93
2023-05-05T06:11:25.078Z,6.20
2023-05-05T06:13:56.884Z,6.10
2023-05-05T06:16:30.333Z,6.10
2023-05-05T06:19:02.196Z,5.90
2023-05-05T06:21:34.126Z,6.30
2023-05-05T06:24:06.017Z,6.17
2023-05-05T06:26:39.207Z,6.73
2023-05-05T06:29:12.348Z,6.37
2023-05-05T06:31:46.230Z,6.00
2023-05-05T06:34:18.199Z,6.10
2023-05-05T06:36:50.158Z,6.60
2023-05-05T06:39:21.762Z,6.60
2023-05-05T06:41:54.835Z,5.87
2023-05-05T06:44:28.223Z,6.53
2023-05-05T06:47:00.681Z,6.00
2023-05-05T06:49:32.645Z,6.53
2023-05-05T06:52:04.619Z,6.43
2023-05-05T06:54:36.424Z,7.63
2023-05-05T06:57:09.411Z,6.13
2023-05-05T06:59:42.637Z,6.63
2023-05-05T07:02:14.526Z,6.93
2023-05-05T07:04:46.545Z,6.30
2023-05-05T07:07:18.395Z,6.80
2023-05-05T07:09:50.219Z,6.33
2023-05-05T07:12:23.288Z,6.53
2023-05-05T07:14:56.807Z,6.10
2023-05-05T07:17:28.438Z,6.10
2023-05-05T07:20:00.254Z,6.50
2023-05-05T07:22:32.187Z,7.07
2023-05-05T07:25:05.529Z,6.33
2023-05-05T07:27:39.972Z,6.70
2023-05-05T07:30:18.501Z,6.53
2023-05-05T07:32:51.084Z,6.73
2023-05-05T07:35:23.081Z,7.13
2023-05-05T07:37:56.495Z,6.50
2023-05-05T07:40:28.244Z,6.87
2023-05-05T07:43:01.517Z,6.80
2023-05-05T07:45:33.963Z,6.93
2023-05-05T07:48:05.958Z,6.63
2023-05-05T07:50:39.617Z,7.17
2023-05-05T07:53:14.958Z,7.53
2023-05-05T07:55:46.907Z,6.80
2023-05-05T07:58:19.939Z,7.63
2023-05-05T08:00:53.213Z,6.93
2023-05-05T08:03:25.354Z,7.50
2023-05-05T08:06:06.727Z,6.70
2023-05-05T08:08:39.589Z,7.40
2023-05-05T08:11:11.501Z,7.03
2023-05-05T08:13:44.456Z,7.37
2023-05-05T08:16:16.766Z,7.60
2023-05-05T08:18:50.215Z,7.13
2023-05-05T08:21:22.384Z,7.43
2023-05-05T08:23:53.938Z,7.03
2023-05-05T08:26:25.920Z,7.33
2023-05-05T08:29:00.787Z,6.93
2023-05-05T08:31:37.794Z,7.63
2023-05-05T08:34:09.928Z,7.40
2023-05-05T08:36:41.741Z,6.93
2023-05-05T08:39:13.572Z,6.17
2023-05-05T08:41:45.863Z,6.87
2023-05-05T08:44:18.942Z,7.77
2023-05-05T08:46:52.286Z,6.90
2023-05-05T08:49:25.370Z,6.70
2023-05-05T08:52:00.362Z,7.20
2023-05-05T08:54:35.883Z,7.03
2023-05-05T08:57:11.882Z,7.10
2023-05-05T08:59:46.008Z,7.53
2023-05-05T09:02:19.347Z,7.37
2023-05-05T09:04:51.527Z,6.90
2023-05-05T09:07:25.618Z,7.53
2023-05-05T09:09:59.697Z,7.20
2023-05-05T09:12:35.544Z,6.73
2023-05-05T09:15:11.614Z,8.13
2023-05-05T09:17:45.539Z,8.10
2023-05-05T09:20:18.503Z,7.47
2023-05-05T09:22:53.176Z,7.23
2023-05-05T09:25:25.090Z,7.23
2023-05-05T09:27:56.895Z,7.40
2023-05-05T09:30:31.383Z,7.83
2023-05-05T09:33:05.547Z,8.20
2023-05-05T09:35:54.427Z,8.00
2023-05-05T09:38:27.997Z,7.20
2023-05-05T09:40:59.814Z,8.33
2023-05-05T09:43:31.663Z,7.90
2023-05-05T09:46:12.129Z,7.30
2023-05-05T09:48:44.001Z,7.67
2023-05-05T09:51:16.128Z,7.53
2023-05-05T09:53:47.863Z,8.03
2023-05-05T09:56:19.867Z,7.53
2023-05-05T09:58:51.441Z,8.03
2023-05-05T10:01:28.449Z,7.50
2023-05-05T10:04:00.417Z,11.87
2023-05-05T10:06:47.427Z,10.00
2023-05-05T10:09:20.979Z,8.33
2023-05-05T10:11:57.284Z,9.90
2023-05-05T10:14:32.735Z,6.50
2023-05-05T10:17:08.074Z,6.77
2023-05-05T10:19:42.878Z,13.37
2023-05-05T10:22:15.067Z,7.57
2023-05-05T10:24:52.363Z,6.93
2023-05-05T10:27:29.245Z,7.30
2023-05-05T10:30:12.997Z,6.70
2023-05-05T10:33:07.878Z,7.00
2023-05-05T10:35:51.593Z,6.20
2023-05-05T10:38:25.535Z,6.93
2023-05-05T10:41:01.794Z,6.93
2023-05-05T10:43:34.740Z,7.10
2023-05-05T10:46:07.358Z,7.63
2023-05-05T10:48:48.267Z,5.90
2023-05-05T10:51:39.340Z,7.00
2023-05-05T10:54:21.938Z,7.67
2023-05-05T10:56:55.142Z,56.80
2023-05-05T10:59:48.112Z,7.23
2023-05-05T11:02:28.812Z,8.50
2023-05-05T11:05:21.291Z,6.70
2023-05-05T11:07:54.640Z,7.27
2023-05-05T11:10:26.510Z,6.37
2023-05-05T11:13:21.946Z,6.03
2023-05-05T11:15:55.384Z,6.10
2023-05-05T11:18:38.211Z,7.07
2023-05-05T11:21:18.349Z,6.20
2023-05-05T11:24:28.539Z,5.63
2023-05-05T11:27:01.307Z,5.53
2023-05-05T11:30:09.574Z,7.40
2023-05-05T11:32:41.481Z,6.33
2023-05-05T11:35:14.240Z,6.70
2023-05-05T11:38:01.900Z,6.40
2023-05-05T11:40:38.484Z,7.77
2023-05-05T11:43:12.409Z,7.07
2023-05-05T11:45:44.221Z,6.30
2023-05-05T11:48:30.770Z,7.47
2023-05-05T11:51:05.378Z,8.40
2023-05-05T11:53:42.588Z,7.07
2023-05-05T11:56:19.256Z,7.10
2023-05-05T11:59:05.732Z,7.37
2023-05-05T12:01:40.271Z,7.03
2023-05-05T12:04:15.254Z,7.53
2023-05-05T12:06:48.961Z,6.63
2023-05-05T12:09:24.304Z,8.83
2023-05-05T12:12:00.483Z,7.10
2023-05-05T12:14:34.409Z,7.97
2023-05-05T12:17:09.425Z,8.27
2023-05-05T12:19:48.147Z,7.37
2023-05-05T12:22:24.659Z,7.40
2023-05-05T12:25:03.091Z,7.93
2023-05-05T12:27:36.263Z,8.23
2023-05-05T12:30:19.240Z,8.13
2023-05-05T12:32:51.077Z,7.27
2023-05-05T12:35:22.823Z,9.57
2023-05-05T12:37:54.748Z,7.67
2023-05-05T12:40:49.606Z,7.77
2023-05-05T12:43:35.517Z,7.90
2023-05-05T12:46:07.102Z,7.57
2023-05-05T12:48:44.453Z,7.60
2023-05-05T12:51:23.034Z,8.47
2023-05-05T12:54:07.443Z,7.37
2023-05-05T12:56:44.055Z,8.07
2023-05-05T12:59:32.813Z,8.23
2023-05-05T13:02:05.101Z,8.13
2023-05-05T13:04:48.468Z,6.80
2023-05-05T13:07:21.695Z,6.70
2023-05-05T13:10:10.488Z,6.50
2023-05-05T13:12:43.452Z,7.73
2023-05-05T13:15:17.729Z,7.33
2023-05-05T13:17:49.614Z,7.50
2023-05-05T13:20:21.384Z,6.90
2023-05-05T13:22:54.742Z,8.13
2023-05-05T13:25:27.990Z,7.03
2023-05-05T13:28:00.957Z,7.10
2023-05-05T13:30:34.246Z,7.37
2023-05-05T13:33:06.268Z,7.43
2023-05-05T13:35:39.585Z,8.10
2023-05-05T13:38:11.362Z,8.37
2023-05-05T13:40:43.183Z,9.37
2023-05-05T13:43:16.174Z,8.60
2023-05-05T13:45:48.107Z,8.83
2023-05-05T13:48:21.323Z,7.77
2023-05-05T13:50:54.606Z,7.43
2023-05-05T13:53:27.909Z,6.47
2023-05-05T13:56:00.146Z,6.90
2023-05-05T13:58:34.195Z,6.83
2023-05-05T14:01:09.520Z,7.17
2023-05-05T14:03:41.205Z,6.40
2023-05-05T14:06:13.565Z,7.37
2023-05-05T14:08:46.084Z,7.47
2023-05-05T14:11:18.217Z,7.13
2023-05-05T14:13:51.922Z,7.43
2023-05-05T14:16:23.600Z,8.37
2023-05-05T14:18:57.628Z,8.30
2023-05-05T14:21:29.308Z,8.43
2023-05-05T14:24:01.160Z,8.57
2023-05-05T14:26:33.041Z,8.47
2023-05-05T14:29:06.198Z,8.53
2023-05-05T14:31:39.767Z,7.70
2023-05-05T14:34:11.714Z,8.87
2023-05-05T14:36:43.363Z,7.87
2023-05-05T14:39:16.654Z,10.40
2023-05-05T14:41:48.572Z,8.83
2023-05-05T14:44:21.811Z,8.60
2023-05-05T14:46:53.587Z,8.57
2023-05-05T14:49:25.540Z,8.60
2023-05-05T14:51:58.934Z,8.00
2023-05-05T14:54:30.778Z,9.17
2023-05-05T14:57:02.860Z,7.73
2023-05-05T14:59:36.121Z,8.33
2023-05-05T15:02:08.100Z,7.83
2023-05-05T15:04:39.924Z,7.60
2023-05-05T15:07:11.893Z,6.97
2023-05-05T15:09:43.746Z,8.70
2023-05-05T15:12:15.711Z,11.00
2023-05-05T15:14:48.624Z,8.17
2023-05-05T15:17:20.528Z,8.40
2023-05-05T15:19:52.217Z,7.80
2023-05-05T15:22:24.035Z,7.30
2023-05-05T15:24:55.839Z,6.40
2023-05-05T15:27:27.945Z,6.93
2023-05-05T15:30:01.176Z,6.70
2023-05-05T15:32:35.062Z,8.10
2023-05-05T15:35:06.962Z,6.27
2023-05-05T15:37:39.098Z,10.50
2023-05-05T15:40:13.458Z,8.43
2023-05-05T15:42:45.770Z,6.50
2023-05-05T15:45:18.868Z,6.97
2023-05-05T15:47:51.010Z,9.23
2023-05-05T15:50:23.322Z,8.67
2023-05-05T15:52:56.778Z,7.20
2023-05-05T15:55:31.257Z,7.10
2023-05-05T15:58:03.051Z,7.50
2023-05-05T16:00:35.961Z,9.07
2023-05-05T16:03:07.977Z,8.03
2023-05-05T16:05:41.699Z,8.37
2023-05-05T16:08:15.031Z,9.63
2023-05-05T16:10:46.850Z,7.57
2023-05-05T16:13:18.733Z,8.23
2023-05-05T16:15:51.796Z,8.73
2023-05-05T16:18:23.714Z,8.93
2023-05-05T16:20:55.583Z,9.40
2023-05-05T16:23:27.402Z,9.70
2023-05-05T16:26:00.979Z,9.60
2023-05-05T16:28:34.179Z,10.53
2023-05-05T16:31:09.423Z,10.40
2023-05-05T16:33:43.744Z,11.77
2023-05-05T16:36:17.810Z,11.90
2023-05-05T16:38:50.851Z,11.63
2023-05-05T16:41:23.374Z,12.67
2023-05-05T16:43:55.424Z,12.40
2023-05-05T16:46:28.577Z,13.27
2023-05-05T16:49:00.492Z,12.93
2023-05-05T16:51:32.409Z,13.70
2023-05-05T16:54:04.331Z,14.37
2023-05-05T16:56:36.728Z,13.53
2023-05-05T16:59:08.596Z,14.43
2023-05-05T17:01:43.330Z,14.73
2023-05-05T17:04:15.120Z,14.57
2023-05-05T17:06:48.305Z,14.03
2023-05-05T17:09:24.688Z,13.83
2023-05-05T17:11:56.571Z,14.63
2023-05-05T17:14:28.456Z,15.70
2023-05-05T17:17:01.504Z,14.33
2023-05-05T17:19:33.384Z,15.80
2023-05-05T17:22:06.678Z,15.20
2023-05-05T17:24:39.923Z,16.30
2023-05-05T17:27:12.713Z,16.07
2023-05-05T17:29:44.634Z,14.10
2023-05-05T17:32:18.293Z,13.47
2023-05-05T17:34:50.142Z,12.87
2023-05-05T17:37:22.076Z,11.17
2023-05-05T17:39:53.879Z,11.87
2023-05-05T17:42:27.019Z,11.80
2023-05-05T17:44:58.603Z,11.83
2023-05-05T17:47:31.903Z,13.07
2023-05-05T17:50:03.609Z,12.47
2023-05-05T17:52:35.472Z,12.93
2023-05-05T17:55:07.749Z,12.70
2023-05-05T17:57:39.915Z,12.73
2023-05-05T18:00:13.710Z,12.50
2023-05-05T18:02:46.749Z,11.83
2023-05-05T18:05:19.010Z,11.37
2023-05-05T18:07:50.877Z,10.53
2023-05-05T18:10:24.042Z,11.60
2023-05-05T18:12:55.852Z,11.70
2023-05-05T18:15:29.727Z,11.17
2023-05-05T18:18:03.458Z,10.90
2023-05-05T18:20:36.868Z,10.63
2023-05-05T18:23:08.764Z,10.70
2023-05-05T18:25:41.458Z,11.00
2023-05-05T18:28:13.312Z,10.90
2023-05-05T18:30:45.280Z,11.60
2023-05-05T18:33:18.303Z,12.77
2023-05-05T18:35:50.144Z,12.53
2023-05-05T18:38:22.221Z,12.50
2023-05-05T18:40:54.008Z,11.63
2023-05-05T18:43:25.838Z,10.43
2023-05-05T18:45:57.833Z,10.70
2023-05-05T18:48:31.040Z,11.13
2023-05-05T18:51:06.974Z,11.33
2023-05-05T18:53:39.266Z,10.97
2023-05-05T18:56:11.022Z,10.37
2023-05-05T18:58:42.896Z,10.23
2023-05-05T19:01:14.816Z,9.50
2023-05-05T19:03:51.419Z,8.47
2023-05-05T19:06:23.539Z,8.17
2023-05-05T19:08:55.413Z,8.27
2023-05-05T19:11:27.298Z,7.17
2023-05-05T19:13:59.230Z,7.03
2023-05-05T19:16:31.178Z,6.43
2023-05-05T19:19:04.372Z,5.90
2023-05-05T19:21:36.323Z,5.53
2023-05-05T19:24:09.609Z,5.40
2023-05-05T19:26:41.398Z,4.93
2023-05-05T19:29:13.314Z,4.93
2023-05-05T19:31:46.718Z,5.10
2023-05-05T19:34:19.702Z,5.07
2023-05-05T19:36:51.619Z,4.90
2023-05-05T19:39:23.436Z,4.87
2023-05-05T19:41:55.329Z,5.17
2023-05-05T19:44:27.067Z,4.83
2023-05-05T19:46:59.011Z,5.20
2023-05-05T19:49:32.008Z,5.17
2023-05-05T19:52:03.928Z,5.07
2023-05-05T19:54:36.079Z,5.30
2023-05-05T19:57:07.701Z,5.50
2023-05-05T19:59:39.596Z,5.30
2023-05-05T20:02:12.161Z,5.03
2023-05-05T20:04:45.956Z,5.17
2023-05-05T20:07:17.890Z,4.67
2023-05-05T20:09:49.874Z,5.13
2023-05-05T20:12:23.061Z,5.47
2023-05-05T20:14:54.952Z,5.20
2023-05-05T20:17:26.846Z,5.37
2023-05-05T20:20:00.062Z,5.37
2023-05-05T20:22:31.978Z,5.17
2023-05-05T20:25:03.984Z,5.87
2023-05-05T20:27:36.143Z,5.17
2023-05-05T20:30:10.764Z,5.10
2023-05-05T20:32:43.462Z,5.50
2023-05-05T20:35:16.751Z,5.80
2023-05-05T20:37:48.745Z,5.53
2023-05-05T20:40:20.732Z,5.30
2023-05-05T20:42:52.362Z,6.37
2023-05-05T20:45:24.974Z,5.87
2023-05-05T20:47:56.654Z,5.90
2023-05-05T20:50:29.648Z,6.13
2023-05-05T20:53:01.563Z,5.50
2023-05-05T20:55:33.946Z,5.50
2023-05-05T20:58:06.731Z,5.70
2023-05-05T21:00:38.723Z,6.13
2023-05-05T21:03:10.662Z,6.20
2023-05-05T21:05:44.649Z,6.93
2023-05-05T21:08:16.427Z,7.20
2023-05-05T21:10:48.216Z,6.50
2023-05-05T21:13:20.110Z,7.87
2023-05-05T21:15:51.983Z,7.00
2023-05-05T21:18:25.709Z,7.60
2023-05-05T21:20:58.970Z,6.90
2023-05-05T21:23:31.296Z,7.30
2023-05-05T21:26:05.906Z,7.07
2023-05-05T21:28:37.564Z,8.57
2023-05-05T21:31:21.684Z,8.60
2023-05-05T21:33:54.214Z,9.07
2023-05-05T21:36:27.433Z,9.40
2023-05-05T21:39:00.483Z,8.37
2023-05-05T21:41:32.329Z,9.53
2023-05-05T21:44:04.255Z,10.00
2023-05-05T21:46:36.220Z,9.73
2023-05-05T21:49:17.377Z,9.70
2023-05-05T21:51:51.169Z,10.37
2023-05-05T21:54:23.162Z,9.77
2023-05-05T21:56:55.016Z,10.13
2023-05-05T21:59:27.132Z,9.70
2023-05-05T22:01:59.104Z,10.57
2023-05-05T22:04:30.890Z,10.40
2023-05-05T22:07:03.819Z,10.90
2023-05-05T22:09:35.697Z,11.30
2023-05-05T22:12:07.553Z,11.03
2023-05-05T22:14:39.513Z,11.07
2023-05-05T22:17:11.565Z,10.83
2023-05-05T22:19:43.180Z,10.63
2023-05-05T22:22:17.367Z,10.23
2023-05-05T22:24:49.371Z,11.37
2023-05-05T22:27:21.203Z,11.33
2023-05-05T22:29:53.028Z,11.43
2023-05-05T22:32:24.971Z,11.17
2023-05-05T22:34:56.845Z,11.13
2023-05-05T22:37:29.748Z,11.70
2023-05-05T22:40:01.643Z,13.30
2023-05-05T22:42:45.289Z,12.40
2023-05-05T22:45:19.345Z,12.47
2023-05-05T22:47:51.543Z,11.50
2023-05-05T22:50:23.599Z,13.20
2023-05-05T22:52:57.139Z,13.17
2023-05-05T22:55:28.797Z,13.67
2023-05-05T22:58:00.637Z,13.60
2023-05-05T23:00:32.366Z,13.40
2023-05-05T23:03:04.295Z,12.93
2023-05-05T23:05:36.189Z,15.10
2023-05-05T23:08:09.837Z,14.30
2023-05-05T23:10:41.691Z,15.60
2023-05-05T23:13:13.607Z,15.03
2023-05-05T23:15:45.550Z,16.00
2023-05-05T23:18:17.373Z,14.13
2023-05-05T23:20:49.362Z,12.77
2023-05-05T23:23:22.544Z,11.47
2023-05-05T23:25:54.422Z,14.53
2023-05-05T23:28:26.263Z,14.10
2023-05-05T23:30:58.254Z,13.90
2023-05-05T23:33:30.120Z,14.13
2023-05-05T23:36:01.919Z,12.83
2023-05-05T23:38:35.115Z,14.27
2023-05-05T23:41:07.036Z,12.87
2023-05-05T23:43:38.897Z,12.37
2023-05-05T23:46:10.789Z,11.20
2023-05-05T23:48:42.658Z,11.73
2023-05-05T23:51:14.463Z,12.47
2023-05-05T23:53:47.406Z,13.67
2023-05-05T23:56:19.299Z,12.73
2023-05-05T23:58:52.388Z,13.40
